Time;durP1;ratioP1;P1;durP2;ratioP2;P2;SDS_P1;SDS_P2;PMS_P1;PMS_P2;Temp;Humidity;BMP_temperature;BMP_pressure;BME280_temperature;BME280_humidity;BME280_pressure;Samples;Min_cycle;Max_cycle;Signal;HPM_P1;HPM_P2
2023/10/28 00:00:39;;;;;;;28.83;14.23;;;;;;;;;;5038557;28;20533;-72
2023/10/28 00:03:05;;;;;;;29.90;14.10;;;;;;;;;;5038193;28;20241;-72
2023/10/28 00:05:32;;;;;;;32.17;15.57;;;;;;;;;;5038371;28;20206;-72
2023/10/28 00:07:58;;;;;;;25.53;13.60;;;;;;;;;;5040575;28;20175;-72
2023/10/28 00:10:24;;;;;;;35.23;16.20;;;;;;;;;;5040790;28;20209;-72
2023/10/28 00:12:50;;;;;;;30.60;14.87;;;;;;;;;;5039093;28;20190;-72
2023/10/28 00:15:18;;;;;;;32.90;16.00;;;;;;;;;;5036631;28;20203;-72
2023/10/28 00:17:47;;;;;;;30.40;15.47;;;;;;;;;;5037662;28;20175;-72
2023/10/28 00:20:13;;;;;;;29.03;12.50;;;;;;;;;;5037126;28;20209;-73
2023/10/28 00:22:39;;;;;;;31.17;13.43;;;;;;;;;;5036213;28;20266;-72
2023/10/28 00:25:05;;;;;;;34.10;12.43;;;;;;;;;;5037025;28;20659;-72
2023/10/28 00:27:33;;;;;;;29.73;13.83;;;;;;;;;;5036822;28;20246;-73
2023/10/28 00:30:02;;;;;;;42.30;27.00;;;;;;;;;;5036251;28;20187;-72
2023/10/28 00:32:28;;;;;;;30.40;12.57;;;;;;;;;;5038825;28;20179;-73
2023/10/28 00:34:59;;;;;;;27.30;12.23;;;;;;;;;;5036623;28;20274;-72
2023/10/28 00:37:25;;;;;;;27.27;13.80;;;;;;;;;;5036694;28;20214;-72
2023/10/28 00:39:52;;;;;;;28.37;13.00;;;;;;;;;;5035289;28;20637;-73
2023/10/28 00:42:18;;;;;;;25.75;12.85;;;;;;;;;;5035317;28;20389;-73
2023/10/28 00:44:44;;;;;;;26.87;11.50;;;;;;;;;;5036452;28;20214;-73
2023/10/28 00:47:12;;;;;;;23.00;11.20;;;;;;;;;;5037123;28;20218;-75
2023/10/28 00:49:38;;;;;;;22.10;11.90;;;;;;;;;;5035622;28;20183;-73
2023/10/28 00:52:04;;;;;;;24.70;11.57;;;;;;;;;;5034446;28;20194;-73
2023/10/28 00:54:31;;;;;;;30.53;12.30;;;;;;;;;;5036345;28;20266;-73
2023/10/28 00:56:57;;;;;;;26.63;11.80;;;;;;;;;;5034833;28;20273;-73
2023/10/28 00:59:23;;;;;;;25.20;12.77;;;;;;;;;;5036149;28;20176;-73
2023/10/28 01:01:51;;;;;;;26.83;12.60;;;;;;;;;;5034830;28;20186;-72
2023/10/28 01:04:17;;;;;;;30.30;12.57;;;;;;;;;;5034367;28;20203;-72
2023/10/28 01:06:43;;;;;;;20.53;11.60;;;;;;;;;;5036225;28;20186;-72
2023/10/28 01:09:09;;;;;;;27.20;12.70;;;;;;;;;;5036304;28;20672;-72
2023/10/28 01:11:41;;;;;;;25.53;12.43;;;;;;;;;;5047565;28;20180;-72
2023/10/28 01:14:07;;;;;;;24.50;13.00;;;;;;;;;;5043746;28;20214;-72
2023/10/28 01:16:33;;;;;;;26.53;14.00;;;;;;;;;;5048190;28;20182;-73
2023/10/28 01:19:00;;;;;;;26.90;14.30;;;;;;;;;;5046326;28;20175;-72
2023/10/28 01:21:26;;;;;;;27.23;14.63;;;;;;;;;;5040267;28;20179;-72
2023/10/28 01:23:52;;;;;;;25.03;13.00;;;;;;;;;;5036945;28;20280;-72
2023/10/28 01:26:18;;;;;;;27.10;13.57;;;;;;;;;;5035303;28;20226;-72
2023/10/28 01:28:44;;;;;;;23.17;11.80;;;;;;;;;;5034414;28;20187;-71
2023/10/28 01:31:10;;;;;;;22.60;11.87;;;;;;;;;;5034522;28;20210;-73
2023/10/28 01:33:36;;;;;;;25.03;11.93;;;;;;;;;;5035454;28;20198;-72
2023/10/28 01:36:02;;;;;;;22.57;12.03;;;;;;;;;;5035708;28;20182;-73
2023/10/28 01:38:29;;;;;;;30.93;12.37;;;;;;;;;;5035269;28;20175;-72
2023/10/28 01:40:56;;;;;;;29.83;12.30;;;;;;;;;;5033992;28;20202;-73
2023/10/28 01:43:22;;;;;;;25.17;12.13;;;;;;;;;;5035126;28;20200;-72
2023/10/28 01:45:48;;;;;;;23.07;12.53;;;;;;;;;;5034870;28;20568;-73
2023/10/28 01:48:14;;;;;;;20.47;11.47;;;;;;;;;;5033260;28;20190;-73
2023/10/28 01:50:41;;;;;;;27.60;12.90;;;;;;;;;;5033155;28;20187;-73
2023/10/28 01:53:07;;;;;;;25.25;14.45;;;;;;;;;;5033527;28;20482;-73
2023/10/28 01:55:33;;;;;;;21.10;11.57;;;;;;;;;;5034541;28;20672;-73
2023/10/28 01:57:59;;;;;;;26.40;12.27;;;;;;;;;;5034555;28;20262;-73
2023/10/28 02:00:30;;;;;;;23.63;11.87;;;;;;;;;;5034996;28;20175;-72
2023/10/28 02:02:56;;;;;;;20.83;12.30;;;;;;;;;;5034489;28;20209;-73
2023/10/28 02:05:22;;;;;;;23.30;12.80;;;;;;;;;;5033364;28;20209;-73
2023/10/28 02:07:48;;;;;;;34.10;13.67;;;;;;;;;;5034485;28;20261;-73
2023/10/28 02:10:14;;;;;;;26.57;12.63;;;;;;;;;;5033264;28;20191;-72
2023/10/28 02:12:40;;;;;;;25.13;12.53;;;;;;;;;;5034193;28;20241;-71
2023/10/28 02:15:07;;;;;;;24.70;12.60;;;;;;;;;;5033922;28;20210;-71
2023/10/28 02:17:35;;;;;;;27.77;13.57;;;;;;;;;;5034043;28;20180;-72
2023/10/28 02:20:03;;;;;;;29.10;13.10;;;;;;;;;;5032589;28;20273;-71
2023/10/28 02:22:31;;;;;;;27.80;14.43;;;;;;;;;;5034394;28;20171;-73
2023/10/28 02:24:57;;;;;;;31.50;14.13;;;;;;;;;;5033760;28;20207;-72
2023/10/28 02:27:23;;;;;;;30.13;12.97;;;;;;;;;;5034084;28;20549;-71
2023/10/28 02:29:49;;;;;;;25.53;13.50;;;;;;;;;;5033969;28;20210;-72
2023/10/28 02:32:15;;;;;;;23.63;12.07;;;;;;;;;;5034240;28;20183;-72
2023/10/28 02:34:41;;;;;;;30.53;13.10;;;;;;;;;;5033097;28;20221;-72
2023/10/28 02:37:07;;;;;;;21.03;12.37;;;;;;;;;;5034830;28;20267;-72
2023/10/28 02:39:33;;;;;;;25.83;11.47;;;;;;;;;;5037055;28;20194;-72
2023/10/28 02:42:00;;;;;;;22.90;10.73;;;;;;;;;;5037489;28;20198;-72
2023/10/28 02:44:26;;;;;;;26.70;11.13;;;;;;;;;;5037415;28;20214;-71
2023/10/28 02:46:53;;;;;;;22.13;9.83;;;;;;;;;;5036019;28;20182;-72
2023/10/28 02:49:19;;;;;;;20.13;11.37;;;;;;;;;;5037406;28;20183;-71
2023/10/28 02:51:45;;;;;;;18.80;10.53;;;;;;;;;;5037829;28;20187;-71
2023/10/28 02:54:11;;;;;;;21.80;10.33;;;;;;;;;;5037253;28;20215;-71
2023/10/28 02:56:38;;;;;;;15.90;9.57;;;;;;;;;;5037176;28;20176;-71
2023/10/28 02:59:06;;;;;;;20.30;9.93;;;;;;;;;;5037508;28;20183;-72
2023/10/28 03:01:36;;;;;;;20.50;9.50;;;;;;;;;;5038049;28;20197;-71
2023/10/28 03:04:02;;;;;;;25.23;10.43;;;;;;;;;;5036916;28;20614;-73
2023/10/28 03:06:28;;;;;;;18.23;10.47;;;;;;;;;;5044102;28;20187;-72
2023/10/28 03:08:54;;;;;;;16.00;9.03;;;;;;;;;;5043984;28;20179;-73
2023/10/28 03:11:20;;;;;;;16.77;9.17;;;;;;;;;;5041152;28;20191;-71
2023/10/28 03:13:46;;;;;;;25.67;10.07;;;;;;;;;;5043523;28;20206;-72
2023/10/28 03:16:13;;;;;;;21.57;8.97;;;;;;;;;;5045619;28;20175;-71
2023/10/28 03:18:39;;;;;;;16.93;8.67;;;;;;;;;;5046266;28;20199;-71
2023/10/28 03:21:06;;;;;;;18.03;8.93;;;;;;;;;;5046518;28;20174;-71
2023/10/28 03:23:32;;;;;;;19.93;9.43;;;;;;;;;;5040671;28;20917;-72
2023/10/28 03:25:58;;;;;;;17.50;9.73;;;;;;;;;;5041798;28;20168;-71
2023/10/28 03:28:24;;;;;;;19.17;9.23;;;;;;;;;;5041838;28;20183;-71
2023/10/28 03:30:50;;;;;;;19.00;9.23;;;;;;;;;;5044064;28;20215;-72
2023/10/28 03:33:16;;;;;;;17.87;9.50;;;;;;;;;;5045599;28;20183;-71
2023/10/28 03:35:42;;;;;;;16.97;8.87;;;;;;;;;;5043428;28;20207;-72
2023/10/28 03:38:09;;;;;;;17.87;9.30;;;;;;;;;;5045190;28;20687;-71
2023/10/28 03:40:37;;;;;;;18.90;10.20;;;;;;;;;;5045380;28;20218;-72
2023/10/28 03:43:04;;;;;;;17.83;9.80;;;;;;;;;;5044137;28;20211;-72
2023/10/28 03:45:30;;;;;;;15.30;9.23;;;;;;;;;;5044687;28;20250;-71
2023/10/28 03:47:56;;;;;;;21.43;10.47;;;;;;;;;;5045087;28;20190;-71
2023/10/28 03:50:22;;;;;;;30.80;10.07;;;;;;;;;;5035008;28;20179;-72
2023/10/28 03:52:48;;;;;;;18.77;9.63;;;;;;;;;;5036882;28;20179;-71
2023/10/28 03:55:14;;;;;;;15.50;8.07;;;;;;;;;;5037370;28;20242;-70
2023/10/28 03:57:40;;;;;;;14.83;9.23;;;;;;;;;;5042281;28;20185;-72
2023/10/28 04:00:11;;;;;;;16.30;9.70;;;;;;;;;;5051039;28;20675;-71
2023/10/28 04:02:37;;;;;;;12.90;8.00;;;;;;;;;;5046851;28;20158;-71
2023/10/28 04:05:03;;;;;;;13.93;7.93;;;;;;;;;;5045368;28;20195;-71
2023/10/28 04:07:29;;;;;;;15.13;8.40;;;;;;;;;;5041961;28;20183;-72
2023/10/28 04:09:55;;;;;;;14.17;7.73;;;;;;;;;;5041962;28;20649;-72
2023/10/28 04:12:21;;;;;;;18.40;8.67;;;;;;;;;;5043141;28;20239;-72
2023/10/28 04:14:47;;;;;;;14.97;7.40;;;;;;;;;;5043116;28;20242;-71
2023/10/28 04:17:13;;;;;;;18.90;8.23;;;;;;;;;;5041009;28;20183;-71
2023/10/28 04:19:39;;;;;;;19.40;7.70;;;;;;;;;;5042475;28;20179;-70
2023/10/28 04:22:05;;;;;;;12.20;7.07;;;;;;;;;;5042787;28;20182;-71
2023/10/28 04:24:31;;;;;;;13.47;7.43;;;;;;;;;;5042237;28;20765;-71
2023/10/28 04:26:57;;;;;;;13.83;7.23;;;;;;;;;;5040433;28;20552;-72
2023/10/28 04:29:23;;;;;;;13.80;7.67;;;;;;;;;;5037395;28;20233;-71
2023/10/28 04:31:49;;;;;;;13.63;7.70;;;;;;;;;;5038899;28;20203;-70
2023/10/28 04:34:15;;;;;;;14.43;7.30;;;;;;;;;;5038605;28;20669;-72
2023/10/28 04:36:40;;;;;;;11.77;7.70;;;;;;;;;;5037162;28;20181;-71
2023/10/28 04:39:07;;;;;;;15.60;6.90;;;;;;;;;;5036899;28;20179;-71
2023/10/28 04:41:33;;;;;;;13.40;7.47;;;;;;;;;;5036249;28;20571;-71
2023/10/28 04:44:01;;;;;;;10.07;6.50;;;;;;;;;;5036056;28;20248;-71
2023/10/28 04:46:27;;;;;;;14.23;6.37;;;;;;;;;;5034878;28;20179;-71
2023/10/28 04:48:53;;;;;;;9.60;6.63;;;;;;;;;;5034513;28;20202;-72
2023/10/28 04:51:19;;;;;;;16.60;6.70;;;;;;;;;;5035886;28;20186;-71
2023/10/28 04:53:45;;;;;;;11.37;6.53;;;;;;;;;;5034765;28;20210;-71
2023/10/28 04:56:11;;;;;;;12.03;6.10;;;;;;;;;;5034512;28;20573;-71
2023/10/28 04:58:38;;;;;;;10.50;5.57;;;;;;;;;;5035800;28;20183;-71
2023/10/28 05:01:04;;;;;;;10.47;6.07;;;;;;;;;;5034397;28;20190;-71
2023/10/28 05:03:30;;;;;;;12.20;5.23;;;;;;;;;;5034433;28;20195;-70
2023/10/28 05:05:57;;;;;;;9.00;4.60;;;;;;;;;;5034668;28;20249;-71
2023/10/28 05:08:23;;;;;;;9.63;5.33;;;;;;;;;;5035386;28;20182;-71
2023/10/28 05:10:49;;;;;;;8.43;4.70;;;;;;;;;;5034408;28;20183;-72
2023/10/28 05:13:15;;;;;;;11.33;5.30;;;;;;;;;;5033895;28;20179;-72
2023/10/28 05:15:41;;;;;;;10.83;5.07;;;;;;;;;;5034856;28;20207;-71
2023/10/28 05:18:07;;;;;;;12.10;4.43;;;;;;;;;;5032973;28;20672;-71
2023/10/28 05:20:33;;;;;;;12.37;4.67;;;;;;;;;;5034638;28;20203;-70
2023/10/28 05:22:59;;;;;;;7.30;4.50;;;;;;;;;;5033526;28;20269;-71
2023/10/28 05:25:25;;;;;;;9.93;4.33;;;;;;;;;;5034292;28;20253;-71
2023/10/28 05:27:51;;;;;;;11.90;3.87;;;;;;;;;;5035036;28;20702;-71
2023/10/28 05:30:17;;;;;;;7.43;4.20;;;;;;;;;;5034447;28;20175;-70
2023/10/28 05:32:43;;;;;;;5.13;3.63;;;;;;;;;;5034085;28;20179;-71
2023/10/28 05:35:11;;;;;;;12.13;4.00;;;;;;;;;;5034002;28;20306;-70
2023/10/28 05:37:37;;;;;;;12.37;5.00;;;;;;;;;;5034390;28;20657;-72
2023/10/28 05:40:03;;;;;;;9.67;4.47;;;;;;;;;;5033493;28;20186;-71
2023/10/28 05:42:29;;;;;;;6.87;4.57;;;;;;;;;;5034621;28;20186;-71
2023/10/28 05:44:55;;;;;;;11.50;5.90;;;;;;;;;;5034901;28;20203;-71
2023/10/28 05:47:21;;;;;;;12.07;5.83;;;;;;;;;;5033297;28;20270;-72
2023/10/28 05:49:47;;;;;;;15.07;7.20;;;;;;;;;;5033348;28;20677;-70
2023/10/28 05:52:18;;;;;;;11.97;7.37;;;;;;;;;;5032982;28;20186;-71
2023/10/28 05:54:44;;;;;;;18.67;6.70;;;;;;;;;;5032990;28;20211;-71
2023/10/28 05:57:10;;;;;;;12.53;6.30;;;;;;;;;;5032633;28;20183;-71
2023/10/28 05:59:36;;;;;;;16.47;5.90;;;;;;;;;;5032770;28;20186;-70
2023/10/28 06:02:03;;;;;;;10.93;6.20;;;;;;;;;;5032761;28;20183;-71
2023/10/28 06:04:31;;;;;;;10.43;5.47;;;;;;;;;;5033781;28;20657;-73
2023/10/28 06:06:57;;;;;;;11.70;5.27;;;;;;;;;;5034206;28;20615;-71
2023/10/28 06:09:23;;;;;;;9.53;5.47;;;;;;;;;;5034077;28;20645;-72
2023/10/28 06:11:52;;;;;;;13.43;5.07;;;;;;;;;;5032422;28;20183;-72
2023/10/28 06:14:18;;;;;;;9.63;5.53;;;;;;;;;;5036945;28;20211;-71
2023/10/28 06:16:46;;;;;;;10.13;5.27;;;;;;;;;;5061538;22;20219;-70
2023/10/28 06:19:12;;;;;;;11.07;5.83;;;;;;;;;;5035079;28;20179;-70
2023/10/28 06:21:38;;;;;;;14.03;5.67;;;;;;;;;;5034790;28;20182;-70
2023/10/28 06:24:04;;;;;;;8.33;5.20;;;;;;;;;;5036005;28;20175;-70
2023/10/28 06:26:30;;;;;;;11.43;6.40;;;;;;;;;;5035818;28;20685;-70
2023/10/28 06:28:57;;;;;;;11.85;6.28;;;;;;;;;;5034944;28;20422;-72
2023/10/28 06:31:22;;;;;;;11.05;6.30;;;;;;;;;;5035023;28;20425;-71
2023/10/28 06:33:48;;;;;;;9.73;5.45;;;;;;;;;;5049987;28;20395;-71
2023/10/28 06:36:14;;;;;;;9.68;5.45;;;;;;;;;;5034981;28;20439;-71
2023/10/28 06:38:40;;;;;;;10.77;5.50;;;;;;;;;;5035024;28;20805;-71
2023/10/28 06:41:06;;;;;;;8.73;4.93;;;;;;;;;;5051466;28;20206;-71
2023/10/28 06:43:33;;;;;;;9.97;5.20;;;;;;;;;;5051351;28;20179;-71
2023/10/28 06:45:59;;;;;;;12.00;5.83;;;;;;;;;;5035626;28;20197;-69
2023/10/28 06:48:25;;;;;;;10.33;5.77;;;;;;;;;;5035876;28;20187;-70
2023/10/28 06:50:51;;;;;;;13.20;6.30;;;;;;;;;;5036082;28;20649;-70
2023/10/28 06:53:17;;;;;;;9.57;5.47;;;;;;;;;;5051195;28;20504;-69
2023/10/28 06:55:43;;;;;;;9.60;6.37;;;;;;;;;;5036020;28;20203;-69
2023/10/28 06:58:08;;;;;;;8.53;5.50;;;;;;;;;;5050739;28;20211;-69
2023/10/28 07:00:36;;;;;;;10.40;6.50;;;;;;;;;;5035620;28;20233;-69
2023/10/28 07:03:02;;;;;;;12.63;6.30;;;;;;;;;;5051010;28;20185;-69
2023/10/28 07:05:28;;;;;;;12.43;5.87;;;;;;;;;;5051866;28;20274;-68
2023/10/28 07:07:56;;;;;;;9.87;6.50;;;;;;;;;;5036233;28;20195;-69
2023/10/28 07:10:22;;;;;;;10.70;6.47;;;;;;;;;;5035860;28;20262;-71
2023/10/28 07:12:49;;;;;;;9.13;6.23;;;;;;;;;;5055228;28;20194;-70
2023/10/28 07:15:15;;;;;;;8.50;6.57;;;;;;;;;;5052590;28;20211;-71
2023/10/28 07:17:43;;;;;;;12.87;7.20;;;;;;;;;;5051523;28;20284;-71
2023/10/28 07:20:09;;;;;;;11.03;7.53;;;;;;;;;;5036064;28;20183;-71
2023/10/28 07:22:35;;;;;;;13.37;10.03;;;;;;;;;;5035263;28;20179;-71
2023/10/28 07:25:01;;;;;;;10.87;8.17;;;;;;;;;;5033485;28;20190;-71
2023/10/28 07:27:27;;;;;;;11.93;10.00;;;;;;;;;;5050153;28;20586;-71
2023/10/28 07:29:53;;;;;;;10.20;6.80;;;;;;;;;;5035013;28;20183;-71
2023/10/28 07:32:20;;;;;;;10.47;8.00;;;;;;;;;;5034966;28;20353;-71
2023/10/28 07:34:46;;;;;;;12.43;7.67;;;;;;;;;;5050199;28;20615;-71
2023/10/28 07:37:13;;;;;;;12.87;6.10;;;;;;;;;;5034692;28;20249;-72
2023/10/28 07:39:41;;;;;;;7.10;5.30;;;;;;;;;;5034675;28;20175;-71
2023/10/28 07:42:07;;;;;;;14.03;5.57;;;;;;;;;;5034883;28;20221;-71
2023/10/28 07:44:33;;;;;;;10.10;6.20;;;;;;;;;;5034655;28;20183;-71
2023/10/28 07:46:59;;;;;;;10.17;5.30;;;;;;;;;;5034769;28;20207;-68
2023/10/28 07:49:25;;;;;;;7.67;4.90;;;;;;;;;;5050194;28;20641;-70
2023/10/28 07:51:51;;;;;;;7.03;4.47;;;;;;;;;;5034799;28;20189;-70
2023/10/28 07:54:17;;;;;;;8.63;4.73;;;;;;;;;;5034869;28;20203;-68
2023/10/28 07:56:43;;;;;;;14.10;9.03;;;;;;;;;;5050209;28;20199;-70
2023/10/28 07:59:10;;;;;;;16.93;12.27;;;;;;;;;;5035651;28;20254;-69
2023/10/28 08:01:36;;;;;;;14.57;8.70;;;;;;;;;;5035033;28;20187;-70
2023/10/28 08:04:04;;;;;;;9.63;6.57;;;;;;;;;;5034854;28;20541;-72
2023/10/28 08:06:30;;;;;;;12.90;6.47;;;;;;;;;;5034858;28;20217;-70
2023/10/28 08:08:56;;;;;;;9.30;5.53;;;;;;;;;;5050658;28;20705;-70
2023/10/28 08:11:24;;;;;;;11.43;5.73;;;;;;;;;;5034433;28;20526;-70
2023/10/28 08:13:53;;;;;;;9.40;6.00;;;;;;;;;;5036845;28;20175;-69
2023/10/28 08:16:20;;;;;;;13.67;7.60;;;;;;;;;;5034860;28;20252;-69
2023/10/28 08:18:46;;;;;;;10.23;6.53;;;;;;;;;;5049734;28;20554;-69
2023/10/28 08:21:16;;;;;;;12.00;6.30;;;;;;;;;;5034383;28;20171;-70
2023/10/28 08:23:43;;;;;;;8.70;5.50;;;;;;;;;;5034603;28;20171;-69
2023/10/28 08:26:10;;;;;;;13.63;5.40;;;;;;;;;;5034173;28;20187;-70
2023/10/28 08:28:36;;;;;;;9.97;6.00;;;;;;;;;;5034643;28;20179;-69
2023/10/28 08:31:02;;;;;;;9.93;6.80;;;;;;;;;;5034251;28;20171;-69
2023/10/28 08:33:28;;;;;;;9.67;7.17;;;;;;;;;;5049814;28;20183;-69
2023/10/28 08:35:57;;;;;;;10.67;7.07;;;;;;;;;;5033495;28;20246;-69
2023/10/28 08:38:23;;;;;;;10.47;7.80;;;;;;;;;;5034278;28;20171;-71
2023/10/28 08:40:50;;;;;;;16.03;6.70;;;;;;;;;;5034306;28;20247;-69
2023/10/28 08:43:16;;;;;;;11.83;5.83;;;;;;;;;;5049248;28;20190;-69
2023/10/28 08:45:42;;;;;;;12.07;5.30;;;;;;;;;;5034016;28;20210;-69
2023/10/28 08:48:11;;;;;;;8.13;4.70;;;;;;;;;;5049171;28;20289;-70
2023/10/28 08:50:41;;;;;;;10.80;5.37;;;;;;;;;;5033773;28;20183;-69
2023/10/28 08:53:08;;;;;;;10.03;5.53;;;;;;;;;;5048947;28;20190;-69
2023/10/28 08:55:37;;;;;;;10.67;5.53;;;;;;;;;;5033307;28;20205;-69
2023/10/28 08:58:06;;;;;;;10.37;5.70;;;;;;;;;;5033323;28;20195;-69
2023/10/28 09:00:34;;;;;;;10.53;5.57;;;;;;;;;;5033206;28;20301;-69
2023/10/28 09:03:04;;;;;;;11.63;6.10;;;;;;;;;;5033450;28;20179;-68
2023/10/28 09:05:30;;;;;;;10.43;4.90;;;;;;;;;;5033253;28;20186;-67
2023/10/28 09:07:55;;;;;;;8.80;5.03;;;;;;;;;;5048208;28;20199;-68
2023/10/28 09:10:22;;;;;;;9.40;5.20;;;;;;;;;;5033310;28;20205;-68
2023/10/28 09:12:50;;;;;;;8.53;4.70;;;;;;;;;;5033026;28;20665;-68
2023/10/28 09:15:16;;;;;;;11.40;4.83;;;;;;;;;;5049142;28;20750;-68
2023/10/28 09:17:42;;;;;;;8.73;4.70;;;;;;;;;;5048085;28;20222;-69
2023/10/28 09:20:16;;;;;;;11.00;5.53;;;;;;;;;;5033095;28;20181;-68
2023/10/28 09:22:43;;;;;;;6.07;4.80;;;;;;;;;;5048506;28;20212;-69
2023/10/28 09:25:10;;;;;;;9.80;4.57;;;;;;;;;;5033448;28;20636;-69
2023/10/28 09:27:36;;;;;;;7.53;4.33;;;;;;;;;;5048511;28;20203;-69
2023/10/28 09:30:12;;;;;;;10.43;5.03;;;;;;;;;;5049760;28;20194;-70
2023/10/28 09:32:38;;;;;;;8.73;5.17;;;;;;;;;;5035521;28;20535;-70
2023/10/28 09:35:05;;;;;;;10.10;5.80;;;;;;;;;;5035482;28;20527;-70
2023/10/28 09:37:31;;;;;;;9.33;5.83;;;;;;;;;;5036024;28;20195;-70
2023/10/28 09:39:58;;;;;;;10.23;6.67;;;;;;;;;;5034899;28;20175;-70
2023/10/28 09:42:25;;;;;;;8.27;4.67;;;;;;;;;;5039128;28;20653;-70
2023/10/28 09:44:53;;;;;;;7.27;4.60;;;;;;;;;;5034224;28;20270;-70
2023/10/28 09:47:21;;;;;;;9.13;5.00;;;;;;;;;;5040329;28;20190;-70
2023/10/28 09:49:50;;;;;;;6.57;3.30;;;;;;;;;;5039287;28;20261;-69
2023/10/28 09:52:17;;;;;;;5.03;2.93;;;;;;;;;;5058221;28;20673;-69
2023/10/28 09:54:43;;;;;;;5.80;2.63;;;;;;;;;;5039907;28;20217;-69
2023/10/28 09:57:10;;;;;;;4.10;2.20;;;;;;;;;;5041764;28;20190;-69
2023/10/28 09:59:38;;;;;;;4.00;2.40;;;;;;;;;;5056277;28;20175;-70
2023/10/28 10:02:12;;;;;;;3.87;2.47;;;;;;;;;;5040664;28;20175;-71
2023/10/28 10:04:58;;;;;;;3.80;2.20;;;;;;;;;;5057550;28;20538;-69
2023/10/28 10:07:24;;;;;;;4.77;2.00;;;;;;;;;;5040731;28;20754;-70
2023/10/28 10:09:50;;;;;;;4.17;1.80;;;;;;;;;;5041227;28;20182;-69
2023/10/28 10:12:16;;;;;;;5.80;2.40;;;;;;;;;;5040194;28;20239;-68
2023/10/28 10:14:45;;;;;;;3.27;2.07;;;;;;;;;;5041563;28;20205;-69
2023/10/28 10:17:11;;;;;;;6.53;2.80;;;;;;;;;;5051751;28;20716;-70
2023/10/28 10:19:37;;;;;;;2.27;1.80;;;;;;;;;;5037254;28;20171;-68
2023/10/28 10:22:04;;;;;;;6.67;2.20;;;;;;;;;;5036515;28;20178;-70
2023/10/28 10:24:30;;;;;;;5.23;1.87;;;;;;;;;;5037695;28;20183;-69
2023/10/28 10:26:59;;;;;;;3.47;2.30;;;;;;;;;;5036547;28;20344;-68
2023/10/28 10:29:29;;;;;;;3.47;1.80;;;;;;;;;;5051453;28;20680;-70
2023/10/28 10:31:56;;;;;;;5.03;2.37;;;;;;;;;;5036992;28;20617;-69
2023/10/28 10:34:37;;;;;;;6.37;2.03;;;;;;;;;;5051500;28;20278;-69
2023/10/28 10:37:04;;;;;;;4.30;2.23;;;;;;;;;;5036339;28;20191;-68
2023/10/28 10:39:41;;;;;;;3.93;2.00;;;;;;;;;;5036959;28;20313;-68
2023/10/28 10:42:08;;;;;;;4.13;1.97;;;;;;;;;;5038121;28;20167;-69
2023/10/28 10:44:38;;;;;;;4.33;1.73;;;;;;;;;;5054755;28;20249;-70
2023/10/28 10:47:05;;;;;;;3.27;1.90;;;;;;;;;;5053745;28;20207;-68
2023/10/28 10:49:31;;;;;;;3.90;1.87;;;;;;;;;;5051566;28;20673;-69
2023/10/28 10:52:03;;;;;;;5.27;2.00;;;;;;;;;;5035983;28;20179;-70
2023/10/28 10:54:31;;;;;;;4.57;2.20;;;;;;;;;;5051364;28;20202;-69
2023/10/28 10:56:58;;;;;;;7.27;2.17;;;;;;;;;;5036271;28;20195;-69
2023/10/28 10:59:25;;;;;;;10.93;2.40;;;;;;;;;;5041148;28;20198;-68
2023/10/28 11:01:51;;;;;;;8.63;2.50;;;;;;;;;;5044142;28;20259;-69
2023/10/28 11:04:17;;;;;;;7.37;2.47;;;;;;;;;;5056412;28;20775;-67
2023/10/28 11:06:44;;;;;;;4.90;3.03;;;;;;;;;;5051367;28;20203;-69
2023/10/28 11:09:12;;;;;;;6.97;2.40;;;;;;;;;;5050980;28;20672;-69
2023/10/28 11:11:38;;;;;;;3.27;1.97;;;;;;;;;;5051768;28;20203;-69
2023/10/28 11:14:04;;;;;;;12.60;2.63;;;;;;;;;;5035641;28;20206;-69
2023/10/28 11:16:31;;;;;;;7.20;3.20;;;;;;;;;;5035324;28;20294;-69
2023/10/28 11:18:59;;;;;;;4.57;2.27;;;;;;;;;;5035480;28;20168;-69
2023/10/28 11:21:25;;;;;;;7.30;2.20;;;;;;;;;;5052175;28;20206;-69
2023/10/28 11:23:52;;;;;;;5.60;2.40;;;;;;;;;;5037993;28;20171;-68
2023/10/28 11:26:19;;;;;;;7.43;2.80;;;;;;;;;;5061818;28;20237;-69
2023/10/28 11:28:45;;;;;;;5.20;3.00;;;;;;;;;;5043828;28;20183;-70
2023/10/28 11:31:11;;;;;;;5.70;2.50;;;;;;;;;;5048679;28;20183;-69
2023/10/28 11:33:37;;;;;;;5.63;2.70;;;;;;;;;;5062936;28;20179;-70
2023/10/28 11:36:04;;;;;;;3.67;1.80;;;;;;;;;;5041277;28;20282;-70
2023/10/28 11:38:36;;;;;;;5.67;2.33;;;;;;;;;;5039074;28;20601;-70
2023/10/28 11:41:03;;;;;;;5.83;2.27;;;;;;;;;;5053758;28;20270;-70
2023/10/28 11:43:30;;;;;;;6.83;2.10;;;;;;;;;;5035664;28;20217;-70
2023/10/28 11:45:56;;;;;;;6.70;2.17;;;;;;;;;;5050599;28;20263;-69
2023/10/28 11:48:22;;;;;;;5.77;2.17;;;;;;;;;;5035396;28;20229;-69
2023/10/28 11:50:48;;;;;;;6.33;2.47;;;;;;;;;;5035312;28;20179;-69
2023/10/28 11:53:17;;;;;;;5.27;2.80;;;;;;;;;;5050197;28;20249;-68
2023/10/28 11:55:45;;;;;;;6.93;2.77;;;;;;;;;;5034741;28;20222;-69
2023/10/28 11:58:11;;;;;;;7.60;2.20;;;;;;;;;;5035313;28;20194;-69
2023/10/28 12:00:37;;;;;;;6.10;2.10;;;;;;;;;;5034412;28;20175;-69
2023/10/28 12:03:06;;;;;;;6.70;2.80;;;;;;;;;;5034646;28;20190;-69
2023/10/28 12:05:35;;;;;;;8.60;3.20;;;;;;;;;;5035274;28;20210;-69
2023/10/28 12:08:01;;;;;;;6.47;2.60;;;;;;;;;;5050021;28;20230;-69
2023/10/28 12:10:27;;;;;;;7.47;2.70;;;;;;;;;;5049138;28;20233;-67
2023/10/28 12:12:53;;;;;;;8.07;3.03;;;;;;;;;;5049340;28;20274;-68
2023/10/28 12:15:19;;;;;;;13.60;3.70;;;;;;;;;;5034835;28;20213;-68
2023/10/28 12:17:46;;;;;;;10.67;3.17;;;;;;;;;;5034199;28;20238;-67
2023/10/28 12:20:14;;;;;;;6.47;2.70;;;;;;;;;;5049894;28;20580;-68
2023/10/28 12:22:40;;;;;;;9.13;3.30;;;;;;;;;;5049399;28;20584;-69
2023/10/28 12:25:07;;;;;;;10.43;3.47;;;;;;;;;;5034126;28;20187;-68
2023/10/28 12:27:33;;;;;;;17.20;4.60;;;;;;;;;;5034117;28;20560;-68
2023/10/28 12:29:58;;;;;;;14.33;3.90;;;;;;;;;;5034821;28;20175;-68
2023/10/28 12:32:24;;;;;;;12.67;3.90;;;;;;;;;;5034321;28;20179;-68
2023/10/28 12:34:50;;;;;;;10.07;3.17;;;;;;;;;;5049182;28;20238;-68
2023/10/28 12:37:16;;;;;;;14.33;4.37;;;;;;;;;;5033725;28;20677;-68
2023/10/28 12:39:42;;;;;;;9.47;4.03;;;;;;;;;;5034144;28;20661;-68
2023/10/28 12:42:08;;;;;;;10.93;3.77;;;;;;;;;;5048900;28;20190;-68
2023/10/28 12:44:34;;;;;;;11.50;3.90;;;;;;;;;;5033695;28;20183;-68
2023/10/28 12:47:00;;;;;;;11.47;4.07;;;;;;;;;;5033681;28;20202;-68
2023/10/28 12:49:26;;;;;;;9.53;4.23;;;;;;;;;;5048747;28;20237;-68
2023/10/28 12:51:56;;;;;;;21.80;4.60;;;;;;;;;;5049069;28;20286;-68
2023/10/28 12:54:22;;;;;;;13.83;4.63;;;;;;;;;;5033557;28;20279;-68
2023/10/28 12:56:48;;;;;;;12.67;4.63;;;;;;;;;;5033765;28;20692;-69
2023/10/28 12:59:14;;;;;;;29.53;6.87;;;;;;;;;;5033478;28;20178;-68
2023/10/28 13:01:40;;;;;;;11.83;5.33;;;;;;;;;;5049030;28;20190;-68
2023/10/28 13:04:07;;;;;;;14.70;3.90;;;;;;;;;;5035416;28;20179;-68
2023/10/28 13:06:33;;;;;;;10.03;2.97;;;;;;;;;;5049548;28;20609;-68
2023/10/28 13:08:59;;;;;;;11.57;4.23;;;;;;;;;;5073454;22;20641;-72
2023/10/28 13:11:27;;;;;;;13.07;4.33;;;;;;;;;;5035053;28;20172;-72
2023/10/28 13:13:53;;;;;;;8.93;3.27;;;;;;;;;;5033059;28;20262;-72
2023/10/28 13:16:19;;;;;;;14.67;3.50;;;;;;;;;;5034640;28;20297;-72
2023/10/28 13:18:45;;;;;;;7.20;3.20;;;;;;;;;;5034957;28;20180;-72
2023/10/28 13:21:13;;;;;;;10.03;3.07;;;;;;;;;;5034806;28;20177;-72
2023/10/28 13:23:39;;;;;;;8.93;3.20;;;;;;;;;;5035107;28;20179;-72
2023/10/28 13:26:10;;;;;;;8.73;3.10;;;;;;;;;;5035264;28;20182;-71
2023/10/28 13:28:36;;;;;;;9.73;3.63;;;;;;;;;;5064975;28;20166;-71
2023/10/28 13:31:01;;;;;;;9.40;3.03;;;;;;;;;;5055848;28;20179;-70
2023/10/28 13:33:27;;;;;;;11.93;4.00;;;;;;;;;;5055478;28;20222;-71
2023/10/28 13:35:53;;;;;;;9.47;3.27;;;;;;;;;;5057715;28;20198;-72
2023/10/28 13:38:19;;;;;;;7.03;2.77;;;;;;;;;;5056942;28;20258;-72
2023/10/28 13:40:45;;;;;;;7.90;2.97;;;;;;;;;;5057662;28;20199;-72
2023/10/28 13:43:11;;;;;;;13.47;3.93;;;;;;;;;;5072484;28;20211;-72
2023/10/28 13:45:37;;;;;;;9.33;3.07;;;;;;;;;;5071856;28;20174;-71
2023/10/28 13:48:04;;;;;;;15.13;4.07;;;;;;;;;;5067090;28;20251;-70
2023/10/28 13:50:30;;;;;;;11.67;3.00;;;;;;;;;;5057356;28;20222;-74
2023/10/28 13:52:56;;;;;;;11.63;3.50;;;;;;;;;;5052464;28;20273;-73
2023/10/28 13:55:22;;;;;;;7.70;2.57;;;;;;;;;;5039040;28;20213;-72
2023/10/28 13:57:48;;;;;;;8.93;2.60;;;;;;;;;;5037823;28;20254;-71
2023/10/28 14:00:15;;;;;;;7.60;2.20;;;;;;;;;;5051562;28;20217;-71
2023/10/28 14:02:41;;;;;;;8.40;2.83;;;;;;;;;;5052236;28;20183;-71
2023/10/28 14:05:08;;;;;;;10.03;2.37;;;;;;;;;;5039715;28;20235;-71
2023/10/28 14:07:34;;;;;;;10.27;2.33;;;;;;;;;;5059686;28;20198;-71
2023/10/28 14:10:00;;;;;;;5.57;2.43;;;;;;;;;;5040106;28;20221;-71
2023/10/28 14:12:28;;;;;;;6.80;2.50;;;;;;;;;;5055511;28;20187;-71
2023/10/28 14:14:54;;;;;;;6.13;2.23;;;;;;;;;;5040863;28;20229;-71
2023/10/28 14:17:21;;;;;;;8.07;2.70;;;;;;;;;;5042001;28;20175;-71
2023/10/28 14:19:47;;;;;;;5.30;2.40;;;;;;;;;;5056599;28;20290;-71
2023/10/28 14:22:13;;;;;;;8.23;2.23;;;;;;;;;;5043532;28;20583;-72
2023/10/28 14:24:40;;;;;;;7.63;2.50;;;;;;;;;;5043879;28;20202;-71
2023/10/28 14:27:06;;;;;;;6.77;2.43;;;;;;;;;;5042045;28;20211;-72